sensor_id;sensor_type;location;lat;lon;timestamp;temperature;humidity
21518;DHT22;61765;45.794;24.150;2023-09-19T00:07:30;23.20;69.30
21518;DHT22;61765;45.794;24.150;2023-09-19T00:15:41;22.80;69.90
21518;DHT22;61765;45.794;24.150;2023-09-19T00:23:54;23.00;69.40
21518;DHT22;61765;45.794;24.150;2023-09-19T00:31:59;23.20;69.50
21518;DHT22;61765;45.794;24.150;2023-09-19T00:40:10;23.20;69.40
21518;DHT22;61765;45.794;24.150;2023-09-19T00:48:18;23.10;70.00
21518;DHT22;61765;45.794;24.150;2023-09-19T00:56:27;23.10;69.80
21518;DHT22;61765;45.794;24.150;2023-09-19T01:04:35;23.00;70.20
21518;DHT22;61765;45.794;24.150;2023-09-19T01:12:54;23.10;70.00
21518;DHT22;61765;45.794;24.150;2023-09-19T01:21:08;23.00;70.30
21518;DHT22;61765;45.794;24.150;2023-09-19T01:29:29;23.00;69.90
21518;DHT22;61765;45.794;24.150;2023-09-19T01:37:44;23.00;69.90
21518;DHT22;61765;45.794;24.150;2023-09-19T01:45:56;23.00;69.80
21518;DHT22;61765;45.794;24.150;2023-09-19T01:54:10;22.90;70.30
21518;DHT22;61765;45.794;24.150;2023-09-19T02:02:18;22.90;70.20
21518;DHT22;61765;45.794;24.150;2023-09-19T02:10:29;23.10;70.00
21518;DHT22;61765;45.794;24.150;2023-09-19T02:18:34;22.90;69.70
21518;DHT22;61765;45.794;24.150;2023-09-19T02:26:42;23.00;69.90
21518;DHT22;61765;45.794;24.150;2023-09-19T02:34:48;23.20;69.40
21518;DHT22;61765;45.794;24.150;2023-09-19T02:42:57;22.60;71.20
21518;DHT22;61765;45.794;24.150;2023-09-19T02:51:02;23.00;70.00
21518;DHT22;61765;45.794;24.150;2023-09-19T02:59:10;23.00;69.80
21518;DHT22;61765;45.794;24.150;2023-09-19T03:07:17;23.30;69.00
21518;DHT22;61765;45.794;24.150;2023-09-19T03:15:26;23.10;69.50
21518;DHT22;61765;45.794;24.150;2023-09-19T03:23:32;23.20;69.00
21518;DHT22;61765;45.794;24.150;2023-09-19T03:31:40;23.00;69.90
21518;DHT22;61765;45.794;24.150;2023-09-19T03:39:47;23.70;68.50
21518;DHT22;61765;45.794;24.150;2023-09-19T03:47:55;23.50;69.00
21518;DHT22;61765;45.794;24.150;2023-09-19T03:56:01;23.00;70.00
21518;DHT22;61765;45.794;24.150;2023-09-19T04:04:11;22.80;70.70
21518;DHT22;61765;45.794;24.150;2023-09-19T04:12:16;23.10;71.20
21518;DHT22;61765;45.794;24.150;2023-09-19T04:20:25;23.40;70.80
21518;DHT22;61765;45.794;24.150;2023-09-19T04:28:31;23.40;70.90
21518;DHT22;61765;45.794;24.150;2023-09-19T04:36:40;23.60;70.70
21518;DHT22;61765;45.794;24.150;2023-09-19T04:44:45;23.30;71.60
21518;DHT22;61765;45.794;24.150;2023-09-19T04:52:54;23.30;72.00
21518;DHT22;61765;45.794;24.150;2023-09-19T05:01:00;23.30;72.00
21518;DHT22;61765;45.794;24.150;2023-09-19T05:09:09;23.60;72.00
21518;DHT22;61765;45.794;24.150;2023-09-19T05:17:15;23.70;71.70
21518;DHT22;61765;45.794;24.150;2023-09-19T05:25:24;23.90;71.20
21518;DHT22;61765;45.794;24.150;2023-09-19T05:33:31;24.20;69.70
21518;DHT22;61765;45.794;24.150;2023-09-19T05:41:39;24.50;69.20
21518;DHT22;61765;45.794;24.150;2023-09-19T05:49:45;24.60;68.50
21518;DHT22;61765;45.794;24.150;2023-09-19T05:57:54;24.80;68.60
21518;DHT22;61765;45.794;24.150;2023-09-19T06:06:00;24.90;69.80
21518;DHT22;61765;45.794;24.150;2023-09-19T06:14:09;25.10;69.50
21518;DHT22;61765;45.794;24.150;2023-09-19T06:22:15;25.30;70.80
21518;DHT22;61765;45.794;24.150;2023-09-19T06:30:25;25.20;72.30
21518;DHT22;61765;45.794;24.150;2023-09-19T06:38:31;25.10;73.10
21518;DHT22;61765;45.794;24.150;2023-09-19T06:46:41;25.00;73.60
21518;DHT22;61765;45.794;24.150;2023-09-19T06:54:49;25.00;73.70
21518;DHT22;61765;45.794;24.150;2023-09-19T07:02:59;25.20;73.70
21518;DHT22;61765;45.794;24.150;2023-09-19T07:11:07;25.30;74.20
21518;DHT22;61765;45.794;24.150;2023-09-19T07:19:17;25.60;73.60
21518;DHT22;61765;45.794;24.150;2023-09-19T07:27:22;26.20;72.80
21518;DHT22;61765;45.794;24.150;2023-09-19T07:35:30;26.60;71.20
21518;DHT22;61765;45.794;24.150;2023-09-19T07:43:36;26.90;73.10
21518;DHT22;61765;45.794;24.150;2023-09-19T07:51:45;26.90;73.80
21518;DHT22;61765;45.794;24.150;2023-09-19T07:59:52;27.20;72.90
21518;DHT22;61765;45.794;24.150;2023-09-19T08:08:03;27.60;71.10
21518;DHT22;61765;45.794;24.150;2023-09-19T08:16:10;27.70;70.80
21518;DHT22;61765;45.794;24.150;2023-09-19T08:24:20;27.70;70.60
21518;DHT22;61765;45.794;24.150;2023-09-19T08:32:26;28.00;68.90
21518;DHT22;61765;45.794;24.150;2023-09-19T08:40:37;27.90;67.70
21518;DHT22;61765;45.794;24.150;2023-09-19T08:48:47;27.30;67.70
21518;DHT22;61765;45.794;24.150;2023-09-19T08:57:00;26.70;69.40
21518;DHT22;61765;45.794;24.150;2023-09-19T09:05:10;26.30;70.10
21518;DHT22;61765;45.794;24.150;2023-09-19T09:13:19;26.10;69.20
21518;DHT22;61765;45.794;24.150;2023-09-19T09:21:27;25.90;68.80
21518;DHT22;61765;45.794;24.150;2023-09-19T09:29:47;26.00;68.50
21518;DHT22;61765;45.794;24.150;2023-09-19T09:37:59;25.90;68.20
21518;DHT22;61765;45.794;24.150;2023-09-19T09:46:14;25.90;68.70
21518;DHT22;61765;45.794;24.150;2023-09-19T09:54:33;25.80;69.60
21518;DHT22;61765;45.794;24.150;2023-09-19T10:02:42;25.80;70.70
21518;DHT22;61765;45.794;24.150;2023-09-19T10:10:49;26.00;72.00
21518;DHT22;61765;45.794;24.150;2023-09-19T10:19:10;26.00;72.70
21518;DHT22;61765;45.794;24.150;2023-09-19T10:27:19;26.00;72.90
21518;DHT22;61765;45.794;24.150;2023-09-19T10:35:27;26.20;73.20
21518;DHT22;61765;45.794;24.150;2023-09-19T10:43:34;26.10;74.40
21518;DHT22;61765;45.794;24.150;2023-09-19T10:51:44;26.00;73.50
21518;DHT22;61765;45.794;24.150;2023-09-19T11:00:03;25.90;72.60
21518;DHT22;61765;45.794;24.150;2023-09-19T11:08:27;25.50;74.00
21518;DHT22;61765;45.794;24.150;2023-09-19T11:16:32;25.20;76.00
21518;DHT22;61765;45.794;24.150;2023-09-19T11:24:41;25.20;76.80
21518;DHT22;61765;45.794;24.150;2023-09-19T11:41:41;25.30;78.20
21518;DHT22;61765;45.794;24.150;2023-09-19T11:49:48;24.80;81.90
21518;DHT22;61765;45.794;24.150;2023-09-19T11:57:59;24.60;82.50
21518;DHT22;61765;45.794;24.150;2023-09-19T12:06:11;24.10;85.20
21518;DHT22;61765;45.794;24.150;2023-09-19T12:14:25;23.20;87.40
21518;DHT22;61765;45.794;24.150;2023-09-19T12:22:39;22.70;88.00
21518;DHT22;61765;45.794;24.150;2023-09-19T12:30:49;22.00;89.10
21518;DHT22;61765;45.794;24.150;2023-09-19T12:38:55;22.40;88.50
21518;DHT22;61765;45.794;24.150;2023-09-19T12:47:11;22.80;87.00
21518;DHT22;61765;45.794;24.150;2023-09-19T12:55:22;22.90;85.50
21518;DHT22;61765;45.794;24.150;2023-09-19T13:03:31;23.10;85.80
21518;DHT22;61765;45.794;24.150;2023-09-19T13:11:39;23.40;84.00
21518;DHT22;61765;45.794;24.150;2023-09-19T13:19:50;23.70;83.30
21518;DHT22;61765;45.794;24.150;2023-09-19T13:27:58;24.50;81.00
21518;DHT22;61765;45.794;24.150;2023-09-19T13:36:09;24.10;81.80
21518;DHT22;61765;45.794;24.150;2023-09-19T13:44:15;24.20;81.70
21518;DHT22;61765;45.794;24.150;2023-09-19T13:52:24;24.20;81.80
21518;DHT22;61765;45.794;24.150;2023-09-19T14:00:32;24.00;81.80
21518;DHT22;61765;45.794;24.150;2023-09-19T14:08:41;24.50;81.00
21518;DHT22;61765;45.794;24.150;2023-09-19T14:16:49;24.40;82.50
21518;DHT22;61765;45.794;24.150;2023-09-19T14:24:58;23.90;84.40
21518;DHT22;61765;45.794;24.150;2023-09-19T14:33:04;23.90;86.70
21518;DHT22;61765;45.794;24.150;2023-09-19T14:41:14;24.20;85.40
21518;DHT22;61765;45.794;24.150;2023-09-19T14:49:19;23.80;87.00
21518;DHT22;61765;45.794;24.150;2023-09-19T14:57:28;24.00;86.70
21518;DHT22;61765;45.794;24.150;2023-09-19T15:05:36;23.90;86.80
21518;DHT22;61765;45.794;24.150;2023-09-19T15:13:46;24.10;83.80
21518;DHT22;61765;45.794;24.150;2023-09-19T15:21:52;24.10;81.90
21518;DHT22;61765;45.794;24.150;2023-09-19T15:30:01;24.20;81.70
21518;DHT22;61765;45.794;24.150;2023-09-19T15:38:07;24.40;81.40
21518;DHT22;61765;45.794;24.150;2023-09-19T15:46:17;24.00;82.60
21518;DHT22;61765;45.794;24.150;2023-09-19T15:54:25;24.00;82.90
21518;DHT22;61765;45.794;24.150;2023-09-19T16:02:34;24.00;84.00
21518;DHT22;61765;45.794;24.150;2023-09-19T16:10:40;23.70;86.80
21518;DHT22;61765;45.794;24.150;2023-09-19T16:18:49;23.50;87.80
21518;DHT22;61765;45.794;24.150;2023-09-19T16:26:55;23.30;88.50
21518;DHT22;61765;45.794;24.150;2023-09-19T16:35:08;23.50;88.90
21518;DHT22;61765;45.794;24.150;2023-09-19T16:43:13;23.50;87.90
21518;DHT22;61765;45.794;24.150;2023-09-19T16:51:21;23.50;87.00
21518;DHT22;61765;45.794;24.150;2023-09-19T16:59:27;23.30;87.00
21518;DHT22;61765;45.794;24.150;2023-09-19T17:07:35;23.30;87.00
21518;DHT22;61765;45.794;24.150;2023-09-19T17:15:41;23.00;86.50
21518;DHT22;61765;45.794;24.150;2023-09-19T17:23:50;23.10;86.70
21518;DHT22;61765;45.794;24.150;2023-09-19T17:31:56;22.80;87.80
21518;DHT22;61765;45.794;24.150;2023-09-19T17:40:18;23.20;86.80
21518;DHT22;61765;45.794;24.150;2023-09-19T17:48:24;23.30;86.40
21518;DHT22;61765;45.794;24.150;2023-09-19T17:56:32;23.20;86.70
21518;DHT22;61765;45.794;24.150;2023-09-19T18:04:37;23.00;87.10
21518;DHT22;61765;45.794;24.150;2023-09-19T18:12:46;23.20;87.10
21518;DHT22;61765;45.794;24.150;2023-09-19T18:20:53;23.10;86.70
21518;DHT22;61765;45.794;24.150;2023-09-19T18:29:03;23.10;86.40
21518;DHT22;61765;45.794;24.150;2023-09-19T18:37:10;23.10;86.40
21518;DHT22;61765;45.794;24.150;2023-09-19T18:45:19;23.10;86.40
21518;DHT22;61765;45.794;24.150;2023-09-19T18:53:43;23.00;86.80
21518;DHT22;61765;45.794;24.150;2023-09-19T19:02:10;23.00;87.70
21518;DHT22;61765;45.794;24.150;2023-09-19T19:10:18;22.90;87.00
21518;DHT22;61765;45.794;24.150;2023-09-19T19:18:27;22.90;87.10
21518;DHT22;61765;45.794;24.150;2023-09-19T19:26:33;22.90;86.80
21518;DHT22;61765;45.794;24.150;2023-09-19T19:34:42;22.90;87.30
21518;DHT22;61765;45.794;24.150;2023-09-19T19:42:50;22.80;87.20
21518;DHT22;61765;45.794;24.150;2023-09-19T19:50:59;22.80;87.20
21518;DHT22;61765;45.794;24.150;2023-09-19T19:59:09;22.80;87.30
21518;DHT22;61765;45.794;24.150;2023-09-19T20:07:18;22.70;87.30
21518;DHT22;61765;45.794;24.150;2023-09-19T20:15:25;22.70;87.40
21518;DHT22;61765;45.794;24.150;2023-09-19T20:23:35;22.70;87.30
21518;DHT22;61765;45.794;24.150;2023-09-19T20:31:41;22.70;87.20
21518;DHT22;61765;45.794;24.150;2023-09-19T20:39:50;22.70;87.20
21518;DHT22;61765;45.794;24.150;2023-09-19T20:47:56;22.80;87.00
21518;DHT22;61765;45.794;24.150;2023-09-19T20:56:05;22.80;86.80
21518;DHT22;61765;45.794;24.150;2023-09-19T21:04:10;22.70;87.10
21518;DHT22;61765;45.794;24.150;2023-09-19T21:12:19;22.70;87.40
21518;DHT22;61765;45.794;24.150;2023-09-19T21:20:24;22.60;87.40
21518;DHT22;61765;45.794;24.150;2023-09-19T21:28:34;22.60;87.50
21518;DHT22;61765;45.794;24.150;2023-09-19T21:36:42;22.60;87.80
21518;DHT22;61765;45.794;24.150;2023-09-19T21:44:51;22.50;87.70
21518;DHT22;61765;45.794;24.150;2023-09-19T21:52:57;22.60;87.80
21518;DHT22;61765;45.794;24.150;2023-09-19T22:01:05;22.40;87.80
21518;DHT22;61765;45.794;24.150;2023-09-19T22:09:12;22.40;88.20
21518;DHT22;61765;45.794;24.150;2023-09-19T22:17:20;22.20;88.50
21518;DHT22;61765;45.794;24.150;2023-09-19T22:25:27;22.20;88.60
21518;DHT22;61765;45.794;24.150;2023-09-19T22:33:41;22.30;88.70
21518;DHT22;61765;45.794;24.150;2023-09-19T22:41:50;22.30;88.60
21518;DHT22;61765;45.794;24.150;2023-09-19T22:49:58;22.30;88.30
21518;DHT22;61765;45.794;24.150;2023-09-19T22:58:07;22.30;88.20
21518;DHT22;61765;45.794;24.150;2023-09-19T23:06:17;22.20;88.40
21518;DHT22;61765;45.794;24.150;2023-09-19T23:14:24;22.20;88.80
21518;DHT22;61765;45.794;24.150;2023-09-19T23:22:39;22.10;89.00
21518;DHT22;61765;45.794;24.150;2023-09-19T23:30:46;22.00;89.20
21518;DHT22;61765;45.794;24.150;2023-09-19T23:38:58;21.90;89.10
21518;DHT22;61765;45.794;24.150;2023-09-19T23:47:04;22.00;89.30
21518;DHT22;61765;45.794;24.150;2023-09-19T23:55:13;21.60;90.20
